Time;durP1;ratioP1;P1;durP2;ratioP2;P2;SDS_P1;SDS_P2;PMS_P1;PMS_P2;Temp;Humidity;BMP_temperature;BMP_pressure;BME280_temperature;BME280_humidity;BME280_pressure;Samples;Min_cycle;Max_cycle;Signal;HPM_P1;HPM_P2
2022/03/18 00:02:04;;;;;;;18.35;9.52;;;5.10;99.90;;;;;;5100918;28;20602;-47
2022/03/18 00:04:32;;;;;;;21.38;12.45;;;5.00;99.90;;;;;;5100650;28;20232;-49
2022/03/18 00:06:59;;;;;;;15.80;10.40;;;5.00;99.90;;;;;;5100509;28;20225;-50
2022/03/18 00:09:27;;;;;;;13.73;10.13;;;4.90;99.90;;;;;;5101662;28;20222;-47
2022/03/18 00:11:55;;;;;;;18.80;11.73;;;5.00;99.90;;;;;;5100602;28;20204;-47
2022/03/18 00:14:22;;;;;;;15.82;11.48;;;4.90;99.90;;;;;;5101033;28;20205;-47
2022/03/18 00:16:49;;;;;;;15.65;10.32;;;4.90;99.90;;;;;;5100859;28;20269;-48
2022/03/18 00:19:17;;;;;;;26.00;12.38;;;4.90;99.90;;;;;;5081918;28;20607;-46
2022/03/18 00:21:45;;;;;;;16.40;9.65;;;4.90;99.90;;;;;;5092499;28;20194;-46
2022/03/18 00:24:13;;;;;;;17.65;11.48;;;4.90;99.90;;;;;;5080934;28;20193;-49
2022/03/18 00:26:40;;;;;;;14.90;10.10;;;4.90;99.90;;;;;;5095804;28;20433;-47
2022/03/18 00:29:08;;;;;;;20.42;11.10;;;4.80;99.90;;;;;;5101225;28;20201;-44
2022/03/18 00:31:35;;;;;;;12.60;9.85;;;4.90;99.90;;;;;;5101237;28;20249;-50
2022/03/18 00:34:03;;;;;;;21.05;10.38;;;4.90;99.90;;;;;;5099658;28;20200;-44
2022/03/18 00:36:30;;;;;;;20.98;11.25;;;4.80;99.90;;;;;;5100739;28;20504;-45
2022/03/18 00:38:58;;;;;;;18.15;9.90;;;4.80;99.90;;;;;;5100484;28;20255;-49
2022/03/18 00:41:26;;;;;;;15.57;10.75;;;4.80;99.90;;;;;;5098966;28;20213;-44
2022/03/18 00:43:53;;;;;;;16.08;11.30;;;4.80;99.90;;;;;;5101083;28;20197;-44
2022/03/18 00:46:23;;;;;;;16.17;10.25;;;4.80;99.90;;;;;;5100595;28;20196;-46
2022/03/18 00:54:23;;;;;;;15.95;10.55;;;4.70;99.90;;;;;;5100805;28;20201;-46
2022/03/18 00:56:50;;;;;;;15.15;10.27;;;4.70;99.90;;;;;;5100095;28;20207;-50
2022/03/18 00:59:17;;;;;;;21.42;11.13;;;4.70;99.90;;;;;;5100320;28;20540;-48
2022/03/18 01:01:45;;;;;;;17.55;10.23;;;4.70;99.90;;;;;;5100428;28;20493;-46
2022/03/18 01:04:12;;;;;;;18.15;10.40;;;4.60;99.90;;;;;;5100128;28;20201;-46
2022/03/18 01:06:39;;;;;;;17.10;10.55;;;4.60;99.90;;;;;;5100568;28;20242;-50
2022/03/18 01:09:07;;;;;;;20.60;11.40;;;4.60;99.90;;;;;;5100154;28;20250;-48
2022/03/18 01:11:34;;;;;;;16.67;11.68;;;4.50;99.90;;;;;;5100404;28;20225;-45
2022/03/18 01:14:01;;;;;;;15.18;11.70;;;4.50;99.90;;;;;;5099578;28;20537;-48
2022/03/18 01:16:29;;;;;;;15.82;10.60;;;4.50;99.90;;;;;;5102423;28;20209;-47
2022/03/18 01:18:56;;;;;;;11.63;8.98;;;4.50;99.90;;;;;;5104898;28;20431;-47
2022/03/18 01:21:23;;;;;;;21.08;10.90;;;4.40;99.90;;;;;;5104275;28;20416;-47
2022/03/18 01:23:50;;;;;;;22.67;10.48;;;4.50;99.90;;;;;;5105202;28;20235;-46
2022/03/18 01:26:17;;;;;;;21.73;12.32;;;4.40;99.90;;;;;;5105303;28;20209;-46
2022/03/18 01:28:44;;;;;;;18.95;10.98;;;4.40;99.90;;;;;;5095304;28;20209;-46
2022/03/18 01:31:12;;;;;;;17.88;12.15;;;4.30;99.90;;;;;;5083573;28;20222;-47
2022/03/18 01:33:39;;;;;;;16.45;9.55;;;4.30;99.90;;;;;;5098469;28;20457;-46
2022/03/18 01:36:06;;;;;;;17.30;10.57;;;4.30;99.90;;;;;;5104198;28;20501;-49
2022/03/18 01:38:33;;;;;;;16.60;10.98;;;4.20;99.90;;;;;;5103226;28;20229;-48
2022/03/18 01:41:00;;;;;;;15.80;10.38;;;4.20;99.90;;;;;;5103612;28;20616;-48
2022/03/18 01:43:27;;;;;;;18.17;11.60;;;4.30;99.90;;;;;;5106104;28;20206;-49
2022/03/18 01:45:55;;;;;;;19.73;10.70;;;4.20;99.90;;;;;;5115347;28;20196;-54
2022/03/18 01:48:23;;;;;;;21.15;12.27;;;4.10;99.90;;;;;;5115108;28;20205;-48
2022/03/18 01:50:50;;;;;;;16.90;9.55;;;4.10;99.90;;;;;;5111990;28;20432;-48
2022/03/18 01:53:18;;;;;;;15.63;10.25;;;4.10;99.90;;;;;;5105195;28;20201;-45
2022/03/18 01:55:45;;;;;;;19.92;10.40;;;4.00;99.90;;;;;;5104181;28;20201;-45
2022/03/18 01:58:12;;;;;;;20.52;11.65;;;4.00;99.90;;;;;;5102572;28;20201;-43
2022/03/18 02:00:39;;;;;;;13.35;10.07;;;4.00;99.90;;;;;;5104236;28;20217;-47
2022/03/18 02:03:07;;;;;;;21.40;10.77;;;4.10;99.90;;;;;;5104189;28;20235;-47
2022/03/18 02:05:34;;;;;;;18.60;10.68;;;4.00;99.90;;;;;;5103741;28;20196;-49
2022/03/18 02:08:06;;;;;;;14.35;10.70;;;4.00;99.90;;;;;;5103740;28;20220;-45
2022/03/18 02:10:37;;;;;;;20.67;12.38;;;3.90;99.90;;;;;;5102295;28;20208;-45
2022/03/18 02:13:04;;;;;;;16.85;11.05;;;4.00;99.90;;;;;;5102768;28;20247;-45
2022/03/18 02:15:32;;;;;;;13.55;10.18;;;3.90;99.90;;;;;;5103431;28;20201;-49
2022/03/18 02:17:59;;;;;;;15.48;10.50;;;3.80;99.90;;;;;;5103370;28;20201;-46
2022/03/18 02:20:26;;;;;;;12.63;9.93;;;3.80;99.90;;;;;;5103023;28;20255;-45
2022/03/18 02:22:53;;;;;;;16.17;11.23;;;3.70;99.90;;;;;;5103658;28;20415;-46
2022/03/18 02:25:21;;;;;;;20.98;10.68;;;3.70;99.90;;;;;;5103753;28;20513;-46
2022/03/18 02:28:02;;;;;;;16.55;11.02;;;3.60;99.90;;;;;;5102542;28;20396;-48
2022/03/18 02:30:33;;;;;;;16.98;10.82;;;3.60;99.90;;;;;;5103590;28;20363;-45
2022/03/18 02:33:01;;;;;;;12.35;8.88;;;3.60;99.90;;;;;;5103793;28;20198;-49
2022/03/18 02:35:29;;;;;;;17.98;10.13;;;3.50;99.90;;;;;;5105720;28;20200;-45
2022/03/18 02:38:00;;;;;;;21.48;11.50;;;3.60;99.90;;;;;;5103989;28;20241;-43
2022/03/18 02:40:28;;;;;;;18.05;11.32;;;3.60;99.90;;;;;;5105709;28;20226;-46
2022/03/18 02:42:55;;;;;;;17.20;12.10;;;3.50;99.90;;;;;;5104866;28;20251;-46
2022/03/18 02:45:22;;;;;;;17.05;10.60;;;3.40;99.90;;;;;;5105570;28;20256;-45
2022/03/18 02:47:49;;;;;;;14.07;11.18;;;3.50;99.90;;;;;;5104023;28;20197;-46
2022/03/18 02:50:17;;;;;;;20.45;11.00;;;3.40;99.90;;;;;;5102894;28;20221;-47
2022/03/18 02:52:44;;;;;;;14.95;10.50;;;3.50;99.90;;;;;;5103274;28;20207;-47
2022/03/18 02:55:11;;;;;;;20.83;12.00;;;3.40;99.90;;;;;;5102338;28;20201;-49
2022/03/18 02:57:39;;;;;;;14.70;10.02;;;3.30;99.90;;;;;;5102878;28;20200;-47
2022/03/18 03:00:07;;;;;;;16.85;11.93;;;3.30;99.90;;;;;;5102635;28;20290;-48
2022/03/18 03:02:34;;;;;;;18.70;10.75;;;3.30;99.90;;;;;;5102908;28;20379;-48
2022/03/18 03:08:01;;;;;;;20.77;10.75;;;3.30;99.90;;;;;;5102333;28;20204;-45
2022/03/18 03:10:30;;;;;;;15.07;10.77;;;3.30;99.90;;;;;;5104293;28;20333;-49
2022/03/18 03:13:01;;;;;;;18.38;10.60;;;3.20;99.90;;;;;;5105717;28;20215;-52
2022/03/18 03:15:28;;;;;;;14.23;10.40;;;3.20;99.90;;;;;;5105561;28;20204;-49
2022/03/18 03:17:55;;;;;;;13.50;9.65;;;3.20;99.90;;;;;;5103150;28;20207;-48
2022/03/18 03:20:22;;;;;;;16.33;11.00;;;3.10;99.90;;;;;;5101887;28;20217;-45
2022/03/18 03:22:49;;;;;;;16.50;10.20;;;3.10;99.90;;;;;;5101694;28;20203;-49
2022/03/18 03:25:17;;;;;;;17.60;10.25;;;2.90;99.90;;;;;;5102097;28;20391;-49
2022/03/18 03:27:45;;;;;;;15.38;9.38;;;2.90;99.90;;;;;;5101499;28;20202;-46
2022/03/18 03:30:12;;;;;;;19.77;11.98;;;3.10;99.90;;;;;;5101530;28;20574;-46
2022/03/18 03:32:39;;;;;;;17.40;10.70;;;3.00;99.90;;;;;;5102497;28;20204;-49
2022/03/18 03:35:08;;;;;;;18.02;10.00;;;3.00;99.90;;;;;;5102699;28;20262;-46
2022/03/18 03:37:35;;;;;;;12.35;9.35;;;2.80;99.90;;;;;;5101765;28;20279;-45
2022/03/18 03:40:04;;;;;;;16.95;11.05;;;2.90;99.90;;;;;;5100201;28;20227;-44
2022/03/18 03:42:31;;;;;;;17.20;10.13;;;2.90;99.90;;;;;;5102070;28;20197;-47
2022/03/18 03:44:58;;;;;;;18.10;9.57;;;2.90;99.90;;;;;;5101293;28;20227;-44
2022/03/18 03:47:26;;;;;;;16.23;10.70;;;2.80;99.90;;;;;;5101966;28;20388;-46
2022/03/18 03:49:53;;;;;;;15.13;10.70;;;2.80;99.90;;;;;;5101292;28;20241;-51
2022/03/18 03:52:20;;;;;;;16.25;9.75;;;2.80;99.90;;;;;;5101988;28;20249;-48
2022/03/18 03:54:47;;;;;;;13.32;10.93;;;2.70;99.90;;;;;;5101717;28;20237;-50
2022/03/18 03:57:14;;;;;;;17.85;11.43;;;2.70;99.90;;;;;;5102059;28;20272;-43
2022/03/18 03:59:41;;;;;;;24.65;13.85;;;2.70;99.90;;;;;;5101547;28;20426;-53
2022/03/18 04:02:11;;;;;;;20.70;12.50;;;2.70;99.90;;;;;;5101125;28;20206;-44
2022/03/18 04:04:39;;;;;;;23.77;12.48;;;2.60;99.90;;;;;;5101049;28;20242;-45
2022/03/18 04:07:08;;;;;;;19.52;12.40;;;2.70;99.90;;;;;;5100989;28;20233;-46
2022/03/18 04:09:35;;;;;;;26.23;12.77;;;2.50;99.90;;;;;;5100902;28;20222;-49
2022/03/18 04:12:03;;;;;;;25.42;12.57;;;2.60;99.90;;;;;;5099025;28;20207;-48
2022/03/18 04:14:30;;;;;;;24.30;12.98;;;2.60;99.90;;;;;;5100834;28;20200;-44
2022/03/18 04:16:58;;;;;;;19.80;11.90;;;2.60;99.90;;;;;;5100791;28;20526;-45
2022/03/18 04:19:26;;;;;;;24.92;12.38;;;2.70;99.90;;;;;;5102022;28;20291;-45
2022/03/18 04:21:53;;;;;;;21.55;13.32;;;2.60;99.90;;;;;;5102824;28;20196;-45
2022/03/18 04:24:20;;;;;;;26.88;11.77;;;2.60;99.90;;;;;;5100578;28;20196;-45
2022/03/18 04:26:48;;;;;;;19.55;11.65;;;2.50;99.90;;;;;;5100628;28;20205;-46
2022/03/18 04:29:15;;;;;;;16.95;9.95;;;2.50;99.90;;;;;;5099537;28;20204;-48
2022/03/18 04:31:43;;;;;;;12.98;10.63;;;2.40;99.90;;;;;;5100466;28;20223;-49
2022/03/18 04:34:12;;;;;;;16.65;10.90;;;2.40;99.90;;;;;;5099305;28;20236;-48
2022/03/18 04:36:39;;;;;;;13.63;9.57;;;2.50;99.90;;;;;;5100534;28;20494;-49
2022/03/18 04:39:06;;;;;;;14.73;10.18;;;2.50;99.90;;;;;;5100103;28;20262;-45
2022/03/18 04:41:34;;;;;;;15.15;10.52;;;2.50;99.90;;;;;;5100202;28;20215;-44
2022/03/18 04:44:01;;;;;;;16.52;9.70;;;2.40;99.90;;;;;;5100329;28;20523;-50
2022/03/18 04:46:31;;;;;;;13.70;10.30;;;2.40;99.90;;;;;;5100085;28;20200;-46
2022/03/18 04:48:59;;;;;;;15.50;9.75;;;2.30;99.90;;;;;;5100414;28;20212;-44
2022/03/18 04:51:27;;;;;;;13.07;10.70;;;2.30;99.90;;;;;;5100304;28;20231;-45
2022/03/18 04:53:54;;;;;;;18.98;11.13;;;2.20;99.90;;;;;;5100307;28;20208;-47
2022/03/18 04:59:08;;;;;;;18.80;10.98;;;2.20;99.90;;;;;;5100684;28;20222;-48
2022/03/18 05:01:35;;;;;;;22.02;11.95;;;2.10;99.90;;;;;;5084540;28;20466;-47
2022/03/18 05:04:03;;;;;;;15.73;11.15;;;2.10;99.90;;;;;;5079275;28;20212;-46
2022/03/18 05:06:31;;;;;;;15.07;12.38;;;2.10;99.90;;;;;;5080640;28;20195;-47
2022/03/18 05:08:58;;;;;;;14.35;11.00;;;2.20;99.90;;;;;;5080152;28;20242;-48
2022/03/18 05:11:25;;;;;;;16.17;10.55;;;2.10;99.90;;;;;;5080016;28;20285;-47
2022/03/18 05:13:53;;;;;;;20.90;12.07;;;2.20;99.90;;;;;;5079047;28;20203;-51
2022/03/18 05:16:20;;;;;;;17.85;10.98;;;2.30;99.90;;;;;;5079832;28;20507;-49
2022/03/18 05:18:48;;;;;;;16.58;11.15;;;2.20;99.90;;;;;;5079350;28;20203;-49
2022/03/18 05:21:15;;;;;;;17.55;12.48;;;2.20;99.90;;;;;;5079660;28;20207;-47
2022/03/18 05:23:43;;;;;;;16.50;11.35;;;2.10;99.90;;;;;;5079592;28;20195;-48
2022/03/18 05:26:11;;;;;;;16.65;10.70;;;2.20;99.90;;;;;;5079641;28;20195;-49
2022/03/18 05:28:39;;;;;;;21.50;11.90;;;2.10;99.90;;;;;;5079788;28;20506;-48
2022/03/18 05:31:06;;;;;;;20.60;11.95;;;2.10;99.90;;;;;;5079315;28;20223;-46
2022/03/18 05:33:33;;;;;;;16.25;11.63;;;2.10;99.90;;;;;;5079840;28;20200;-47
2022/03/18 05:36:00;;;;;;;20.73;11.45;;;2.10;99.90;;;;;;5081188;28;20501;-49
2022/03/18 05:38:27;;;;;;;15.50;11.70;;;2.00;99.90;;;;;;5081430;28;20199;-47
2022/03/18 05:40:55;;;;;;;16.50;9.95;;;2.10;99.90;;;;;;5072076;28;20274;-46
2022/03/18 05:43:22;;;;;;;16.83;11.15;;;2.10;99.90;;;;;;5061204;28;20201;-45
2022/03/18 05:45:49;;;;;;;18.73;11.40;;;2.00;99.90;;;;;;5064963;28;20207;-49
2022/03/18 05:48:17;;;;;;;19.00;10.70;;;2.10;99.90;;;;;;5093048;28;20192;-47
2022/03/18 05:50:44;;;;;;;19.50;12.90;;;2.00;99.90;;;;;;5101523;28;20218;-46
2022/03/18 05:53:12;;;;;;;14.75;11.48;;;2.00;99.90;;;;;;5100881;28;20227;-46
2022/03/18 05:58:25;;;;;;;20.77;11.93;;;2.10;99.90;;;;;;5093502;28;20231;-46
2022/03/18 06:00:53;;;;;;;19.58;12.15;;;2.20;99.90;;;;;;5086284;28;20239;-45
2022/03/18 06:03:21;;;;;;;22.77;11.60;;;2.40;99.90;;;;;;5082104;28;20223;-50
2022/03/18 06:05:48;;;;;;;18.80;11.57;;;2.30;99.90;;;;;;5082471;28;20211;-45
2022/03/18 06:13:46;;;;;;;19.98;12.68;;;2.50;99.90;;;;;;5094514;28;20249;-46
2022/03/18 06:16:14;;;;;;;14.52;10.77;;;2.50;99.90;;;;;;5095903;28;20484;-45
2022/03/18 06:18:41;;;;;;;14.15;9.95;;;2.70;99.90;;;;;;5103672;28;20469;-51
2022/03/18 06:21:10;;;;;;;17.00;10.73;;;2.80;99.90;;;;;;5102360;28;20236;-51
2022/03/18 06:23:37;;;;;;;15.98;11.40;;;2.90;99.90;;;;;;5114812;28;20196;-51
2022/03/18 06:26:05;;;;;;;13.85;9.52;;;3.00;99.90;;;;;;5114570;28;20202;-53
2022/03/18 06:28:32;;;;;;;13.07;9.98;;;3.20;99.90;;;;;;5111115;28;20196;-50
2022/03/18 06:31:00;;;;;;;13.25;11.32;;;3.30;99.90;;;;;;5104255;28;20236;-48
2022/03/18 06:33:27;;;;;;;14.77;9.70;;;3.50;99.90;;;;;;5104842;28;20220;-48
2022/03/18 06:35:55;;;;;;;19.23;11.57;;;3.50;99.90;;;;;;5103912;28;20503;-49
2022/03/18 06:38:22;;;;;;;18.23;13.05;;;3.70;99.90;;;;;;5104946;28;20283;-50
2022/03/18 06:40:50;;;;;;;16.88;10.57;;;3.70;99.90;;;;;;5104198;28;20551;-48
2022/03/18 06:43:17;;;;;;;15.70;9.95;;;4.20;99.90;;;;;;5103965;28;20287;-45
2022/03/18 06:45:44;;;;;;;19.17;12.20;;;4.50;99.90;;;;;;5103125;28;20523;-47
2022/03/18 06:48:11;;;;;;;19.35;12.48;;;4.80;99.90;;;;;;5103460;28;20194;-50
2022/03/18 06:50:38;;;;;;;13.27;9.38;;;4.80;99.90;;;;;;5102744;28;20229;-46
2022/03/18 06:53:06;;;;;;;13.68;10.65;;;4.80;99.90;;;;;;5102614;28;20204;-46
2022/03/18 06:55:33;;;;;;;18.38;13.85;;;4.90;99.90;;;;;;5102942;28;20231;-46
2022/03/18 06:58:00;;;;;;;17.75;11.13;;;5.10;99.90;;;;;;5102463;28;20199;-48
2022/03/18 07:00:28;;;;;;;16.42;10.05;;;5.60;99.90;;;;;;5101761;28;20226;-47
2022/03/18 07:02:55;;;;;;;18.27;12.30;;;5.80;99.90;;;;;;5103511;28;20218;-46
2022/03/18 07:05:23;;;;;;;17.23;11.93;;;5.80;99.90;;;;;;5102910;28;20269;-47
2022/03/18 07:07:51;;;;;;;16.75;11.18;;;5.40;99.90;;;;;;5101988;28;20202;-48
2022/03/18 07:10:19;;;;;;;15.73;10.68;;;5.50;99.90;;;;;;5102125;28;20263;-47
2022/03/18 07:12:46;;;;;;;18.90;12.40;;;5.30;99.90;;;;;;5101884;28;20198;-46
2022/03/18 07:15:13;;;;;;;15.85;11.02;;;5.60;99.90;;;;;;5081820;28;20262;-46
2022/03/18 07:17:58;;;;;;;18.85;11.90;;;5.90;99.90;;;;;;5081885;28;20205;-46
2022/03/18 07:20:28;;;;;;;21.30;12.23;;;5.70;99.90;;;;;;5081408;28;20254;-47
2022/03/18 07:23:11;;;;;;;18.38;12.55;;;5.50;99.90;;;;;;5079840;28;20203;-48
2022/03/18 07:25:41;;;;;;;16.35;11.07;;;5.70;99.90;;;;;;5081698;28;20194;-50
2022/03/18 07:28:11;;;;;;;15.93;10.40;;;5.60;99.90;;;;;;5080676;28;20194;-50
2022/03/18 07:30:39;;;;;;;22.02;12.05;;;5.30;99.90;;;;;;5081972;28;20218;-49
2022/03/18 07:33:07;;;;;;;14.45;11.27;;;5.80;99.90;;;;;;5082095;28;20202;-49
2022/03/18 07:35:35;;;;;;;17.80;11.18;;;6.50;99.90;;;;;;5081216;28;20402;-45
2022/03/18 07:38:07;;;;;;;15.40;12.30;;;7.40;99.60;;;;;;5081328;28;20198;-48
2022/03/18 07:40:34;;;;;;;16.20;13.10;;;7.50;99.10;;;;;;5081765;28;20223;-48
2022/03/18 07:43:02;;;;;;;23.38;12.35;;;7.60;99.20;;;;;;5081309;28;20195;-51
2022/03/18 07:45:30;;;;;;;19.98;12.00;;;8.30;98.10;;;;;;5080733;28;20287;-48
2022/03/18 07:48:01;;;;;;;17.27;11.35;;;8.70;96.90;;;;;;5080690;28;20195;-52
2022/03/18 07:50:30;;;;;;;19.88;11.15;;;8.50;96.00;;;;;;5081069;28;20224;-52
2022/03/18 07:53:08;;;;;;;17.65;12.35;;;9.10;95.60;;;;;;5079908;28;20201;-50
2022/03/18 07:55:37;;;;;;;20.17;11.88;;;9.10;94.60;;;;;;5081108;28;20539;-49
2022/03/18 07:58:06;;;;;;;19.23;12.68;;;9.00;94.30;;;;;;5081346;28;20535;-50
2022/03/18 08:00:35;;;;;;;21.40;12.13;;;9.00;94.00;;;;;;5081075;28;20223;-45
2022/03/18 08:03:03;;;;;;;13.68;11.23;;;8.50;94.30;;;;;;5079816;28;20484;-49
2022/03/18 08:05:30;;;;;;;19.52;12.45;;;8.30;94.40;;;;;;5080502;28;20204;-51
2022/03/18 08:07:58;;;;;;;16.02;11.85;;;8.40;94.80;;;;;;5080419;28;20199;-51
2022/03/18 08:10:29;;;;;;;19.48;12.65;;;8.70;94.70;;;;;;5080775;28;20244;-47
2022/03/18 08:12:56;;;;;;;23.38;14.55;;;9.40;92.80;;;;;;5080665;28;20209;-49
2022/03/18 08:15:24;;;;;;;20.65;14.23;;;9.90;92.40;;;;;;5079357;28;20209;-51
2022/03/18 08:17:54;;;;;;;19.95;12.60;;;10.60;91.00;;;;;;5083347;28;20202;-46
2022/03/18 08:20:22;;;;;;;14.18;11.27;;;11.30;88.80;;;;;;5080805;28;20244;-46
2022/03/18 08:22:50;;;;;;;20.25;12.95;;;12.10;85.60;;;;;;5080765;28;20501;-49
2022/03/18 08:25:18;;;;;;;21.58;14.63;;;12.00;84.00;;;;;;5079938;28;20265;-48
2022/03/18 08:27:48;;;;;;;21.38;14.15;;;12.10;82.80;;;;;;5080148;28;20205;-48
2022/03/18 08:30:16;;;;;;;22.08;13.93;;;10.70;85.00;;;;;;5080564;28;20229;-48
2022/03/18 08:32:46;;;;;;;20.95;11.45;;;11.00;85.30;;;;;;5079533;28;20225;-49
2022/03/18 08:35:14;;;;;;;20.13;14.80;;;13.00;80.90;;;;;;5080058;28;20221;-51
2022/03/18 08:37:57;;;;;;;19.58;14.65;;;13.70;75.80;;;;;;5079415;28;20198;-50
2022/03/18 08:40:32;;;;;;;17.77;13.23;;;13.10;75.60;;;;;;5081932;28;20227;-48
2022/03/18 08:43:00;;;;;;;16.50;11.30;;;13.30;77.10;;;;;;5079271;28;20406;-50
2022/03/18 08:45:29;;;;;;;28.40;13.20;;;15.40;71.00;;;;;;5079985;28;20196;-50
2022/03/18 08:47:56;;;;;;;20.80;13.57;;;16.50;65.40;;;;;;5087630;28;20199;-51
2022/03/18 08:50:23;;;;;;;20.83;15.57;;;17.10;62.60;;;;;;5093058;28;20453;-50
2022/03/18 08:52:53;;;;;;;17.30;12.67;;;14.50;65.70;;;;;;5099429;28;20420;-48
2022/03/18 08:55:21;;;;;;;21.40;13.53;;;14.60;66.90;;;;;;5099364;28;20440;-51
2022/03/18 08:57:50;;;;;;;22.40;12.33;;;14.80;64.70;;;;;;5099770;28;20410;-52
2022/03/18 09:00:18;;;;;;;22.80;13.53;;;14.60;64.70;;;;;;5098805;28;20473;-48
2022/03/18 09:02:47;;;;;;;17.60;13.23;;;16.20;61.30;;;;;;5097899;28;20398;-49
2022/03/18 09:05:15;;;;;;;21.80;15.40;;;15.80;61.00;;;;;;5087828;28;20622;-46
2022/03/18 09:07:42;;;;;;;18.27;13.50;;;16.70;59.40;;;;;;5095481;28;20461;-48
2022/03/18 09:10:12;;;;;;;16.63;13.23;;;15.90;60.40;;;;;;5099915;28;20448;-54
2022/03/18 09:12:47;;;;;;;15.40;12.50;;;16.50;58.60;;;;;;5099433;28;20481;-47
2022/03/18 09:15:16;;;;;;;17.60;12.70;;;16.90;58.10;;;;;;5100381;28;20643;-49
2022/03/18 09:17:43;;;;;;;16.83;13.40;;;17.30;57.20;;;;;;5099818;28;20605;-47
2022/03/18 09:20:11;;;;;;;20.37;13.90;;;17.20;56.60;;;;;;5099899;28;20459;-49
2022/03/18 09:22:39;;;;;;;16.17;12.23;;;16.30;57.80;;;;;;5103392;28;20465;-53
2022/03/18 09:25:07;;;;;;;15.13;12.10;;;15.30;57.50;;;;;;5104926;28;20495;-49
2022/03/18 09:27:34;;;;;;;18.23;13.07;;;13.80;61.30;;;;;;5104152;28;20418;-48
2022/03/18 09:30:08;;;;;;;16.63;13.25;;;14.70;60.30;;;;;;5101818;28;20419;-46
2022/03/18 09:32:36;;;;;;;16.15;13.85;;;13.40;61.40;;;;;;5101844;28;20216;-46
2022/03/18 09:35:04;;;;;;;16.83;13.90;;;13.60;62.50;;;;;;5101123;28;20497;-52
2022/03/18 09:37:32;;;;;;;16.77;13.38;;;12.80;64.30;;;;;;5100865;28;20388;-47
2022/03/18 09:40:01;;;;;;;17.88;13.52;;;11.70;66.70;;;;;;5103077;28;20217;-46
2022/03/18 09:43:02;;;;;;;18.60;13.80;;;11.20;69.90;;;;;;5104312;28;20454;-47
2022/03/18 09:45:32;;;;;;;22.23;14.18;;;10.60;71.20;;;;;;5104105;28;20445;-47
2022/03/18 09:48:01;;;;;;;18.10;13.32;;;10.50;71.90;;;;;;5104179;28;20197;-49
2022/03/18 09:50:29;;;;;;;18.98;12.50;;;10.10;72.30;;;;;;5103580;28;20229;-50
2022/03/18 09:52:57;;;;;;;21.02;13.18;;;9.80;73.60;;;;;;5102654;28;20239;-48
2022/03/18 09:55:24;;;;;;;21.33;14.73;;;9.50;75.00;;;;;;5103978;28;20205;-48
2022/03/18 09:57:53;;;;;;;21.05;14.25;;;9.30;76.10;;;;;;5103876;28;20253;-45
2022/03/18 10:00:24;;;;;;;14.32;11.50;;;9.20;76.60;;;;;;5103741;28;20225;-47
2022/03/18 10:03:12;;;;;;;18.40;13.45;;;9.20;77.10;;;;;;5102826;28;20197;-48
2022/03/18 10:05:56;;;;;;;29.67;12.77;;;9.10;77.30;;;;;;5103229;28;20377;-49
2022/03/18 10:08:25;;;;;;;19.50;14.48;;;9.10;78.00;;;;;;5102915;28;20503;-48
2022/03/18 10:10:52;;;;;;;21.83;13.95;;;9.30;77.50;;;;;;5102935;28;20409;-46
2022/03/18 10:13:20;;;;;;;18.42;13.35;;;9.40;77.80;;;;;;5103203;28;20240;-48
2022/03/18 10:15:47;;;;;;;21.67;14.02;;;9.40;77.10;;;;;;5102621;28;20215;-46
2022/03/18 10:18:16;;;;;;;18.10;13.43;;;9.40;77.60;;;;;;5103840;28;20209;-47
2022/03/18 10:20:47;;;;;;;20.45;13.95;;;9.50;77.10;;;;;;5102760;28;20265;-49
2022/03/18 10:23:16;;;;;;;21.83;16.00;;;9.50;77.60;;;;;;5103521;28;20206;-46
2022/03/18 10:25:57;;;;;;;17.40;12.98;;;9.70;77.50;;;;;;5102837;28;20511;-47
2022/03/18 10:28:38;;;;;;;17.35;14.75;;;9.60;78.20;;;;;;5102502;28;20544;-46
2022/03/18 10:31:25;;;;;;;19.85;15.18;;;9.60;78.20;;;;;;5099119;28;20236;-48
2022/03/18 10:39:41;;;;;;;20.77;15.15;;;9.30;80.20;;;;;;5097318;28;20198;-52
2022/03/18 10:42:17;;;;;;;16.52;11.90;;;9.50;79.20;;;;;;5081041;28;20422;-48
2022/03/18 10:44:57;;;;;;;17.90;14.15;;;9.60;78.00;;;;;;5081568;28;20536;-49
2022/03/18 10:47:28;;;;;;;20.48;11.40;;;9.70;78.10;;;;;;5082366;28;20342;-50
2022/03/18 10:50:13;;;;;;;18.70;13.35;;;9.80;78.60;;;;;;5082319;28;20224;-46
2022/03/18 10:52:47;;;;;;;16.30;10.95;;;9.70;79.20;;;;;;5082275;28;20197;-51
2022/03/18 10:55:16;;;;;;;17.42;11.88;;;9.80;78.20;;;;;;5081791;28;20251;-46
2022/03/18 10:57:50;;;;;;;17.83;13.43;;;9.70;77.20;;;;;;5082236;28;20524;-47
2022/03/18 11:00:19;;;;;;;19.60;11.70;;;9.60;76.40;;;;;;5081576;28;20224;-48
2022/03/18 11:02:48;;;;;;;14.70;12.13;;;9.50;76.90;;;;;;5080792;28;20198;-46
2022/03/18 11:05:19;;;;;;;15.40;11.80;;;9.60;75.40;;;;;;5082341;28;20280;-46
2022/03/18 11:07:53;;;;;;;16.58;13.13;;;9.70;76.40;;;;;;5081812;28;20193;-48
2022/03/18 11:13:09;;;;;;;14.88;10.82;;;9.80;76.00;;;;;;5082369;28;20201;-45
2022/03/18 11:15:40;;;;;;;18.83;12.40;;;9.80;75.70;;;;;;5092665;28;20192;-51
2022/03/18 11:18:10;;;;;;;27.90;14.73;;;9.90;75.70;;;;;;5091963;28;20198;-53
2022/03/18 11:20:43;;;;;;;19.92;12.65;;;10.00;75.70;;;;;;5091063;28;20233;-50
2022/03/18 11:23:18;;;;;;;14.73;12.25;;;10.10;75.50;;;;;;5084794;28;20197;-46
2022/03/18 11:25:49;;;;;;;21.10;13.35;;;10.20;74.70;;;;;;5087317;28;20199;-49
2022/03/18 11:28:18;;;;;;;15.38;12.98;;;10.20;74.20;;;;;;5086031;28;20259;-47
2022/03/18 11:30:48;;;;;;;13.48;12.00;;;10.30;73.80;;;;;;5081131;28;20419;-49
2022/03/18 11:33:15;;;;;;;14.85;9.23;;;10.30;68.90;;;;;;5081839;28;20299;-48
2022/03/18 11:35:54;;;;;;;9.50;8.52;;;10.10;68.00;;;;;;5081307;28;20208;-48
2022/03/18 11:38:28;;;;;;;11.48;9.48;;;10.10;68.80;;;;;;5081530;28;20198;-49
2022/03/18 11:41:00;;;;;;;17.60;10.43;;;10.20;70.00;;;;;;5079355;28;20233;-46
2022/03/18 11:43:36;;;;;;;14.50;10.00;;;10.40;70.80;;;;;;5083127;28;20206;-48
2022/03/18 11:46:12;;;;;;;14.90;8.75;;;10.40;68.50;;;;;;5081010;28;20202;-47
2022/03/18 11:48:56;;;;;;;10.80;9.02;;;10.50;64.40;;;;;;5081565;28;20263;-45
2022/03/18 11:51:40;;;;;;;15.05;9.98;;;10.40;67.30;;;;;;5080937;28;20402;-49
2022/03/18 11:54:23;;;;;;;15.23;10.65;;;10.40;68.10;;;;;;5080829;28;20436;-51
2022/03/18 11:56:52;;;;;;;10.18;9.10;;;10.40;69.00;;;;;;5081266;28;20210;-52
2022/03/18 11:59:27;;;;;;;14.25;11.50;;;10.60;67.00;;;;;;5082738;28;20209;-52
2022/03/18 12:02:00;;;;;;;11.60;9.40;;;10.80;67.50;;;;;;5081805;28;20478;-49
2022/03/18 12:04:36;;;;;;;13.98;9.57;;;10.90;67.30;;;;;;5082679;28;20213;-50
2022/03/18 12:07:18;;;;;;;11.40;9.10;;;10.90;66.00;;;;;;5082915;28;20453;-48
2022/03/18 12:10:19;;;;;;;15.57;10.25;;;10.90;65.20;;;;;;5081887;28;20242;-53
2022/03/18 12:12:48;;;;;;;12.50;9.75;;;10.90;65.80;;;;;;5080203;28;20352;-47
2022/03/18 12:15:19;;;;;;;12.88;11.20;;;10.80;65.40;;;;;;5080916;28;20229;-45
2022/03/18 12:17:54;;;;;;;13.13;9.98;;;10.80;66.30;;;;;;5080991;28;20195;-48
2022/03/18 12:20:33;;;;;;;16.50;10.20;;;10.70;66.40;;;;;;5079137;28;20248;-48
2022/03/18 12:23:05;;;;;;;14.40;10.63;;;10.60;66.40;;;;;;5080402;28;20206;-47
2022/03/18 12:25:36;;;;;;;13.43;9.88;;;10.70;65.00;;;;;;5078755;28;20189;-51
2022/03/18 12:28:03;;;;;;;11.30;9.80;;;10.80;65.30;;;;;;5080442;28;20420;-50
2022/03/18 12:30:31;;;;;;;14.07;9.95;;;10.80;64.60;;;;;;5079973;28;20217;-52
2022/03/18 12:33:01;;;;;;;16.10;10.25;;;10.70;64.20;;;;;;5079903;28;20212;-50
2022/03/18 12:35:35;;;;;;;11.55;10.35;;;10.60;64.80;;;;;;5080067;28;20201;-46
2022/03/18 12:38:22;;;;;;;12.38;8.88;;;10.70;64.70;;;;;;5080065;28;20416;-46
2022/03/18 12:40:58;;;;;;;13.00;10.32;;;10.70;63.00;;;;;;5079553;28;20224;-46
2022/03/18 12:43:29;;;;;;;13.25;8.90;;;10.70;63.30;;;;;;5079833;28;20288;-48
2022/03/18 12:45:56;;;;;;;10.50;8.73;;;10.60;64.70;;;;;;5080206;28;20207;-48
2022/03/18 12:48:24;;;;;;;14.95;10.07;;;10.70;65.30;;;;;;5080457;28;20205;-46
2022/03/18 12:50:56;;;;;;;18.55;10.57;;;10.70;65.10;;;;;;5078590;28;20230;-43
2022/03/18 12:53:26;;;;;;;13.82;10.43;;;10.80;65.00;;;;;;5081711;28;20427;-51
2022/03/18 12:55:58;;;;;;;14.43;10.85;;;10.90;65.10;;;;;;5081450;28;20208;-46
2022/03/18 12:58:27;;;;;;;10.90;9.63;;;11.10;64.60;;;;;;5081298;28;20265;-46
2022/03/18 13:00:56;;;;;;;15.43;9.60;;;11.00;65.20;;;;;;5080422;28;20222;-45
2022/03/18 13:03:28;;;;;;;11.02;9.85;;;11.00;64.80;;;;;;5080768;28;20525;-47
2022/03/18 13:06:05;;;;;;;11.98;9.30;;;11.00;64.70;;;;;;5080210;28;20203;-48
2022/03/18 13:08:34;;;;;;;12.40;9.75;;;11.10;64.70;;;;;;5060684;28;20204;-48
2022/03/18 13:11:03;;;;;;;10.88;9.77;;;11.10;64.10;;;;;;5060487;28;20238;-48
2022/03/18 13:13:31;;;;;;;13.00;11.60;;;11.20;64.00;;;;;;5066603;28;20195;-48
2022/03/18 13:16:01;;;;;;;20.40;12.95;;;11.00;64.80;;;;;;5070478;28;20206;-45